Time;durP1;ratioP1;P1;durP2;ratioP2;P2;SDS_P1;SDS_P2;PMS_P1;PMS_P2;Temp;Humidity;BMP_temperature;BMP_pressure;BME280_temperature;BME280_humidity;BME280_pressure;Samples;Min_cycle;Max_cycle;Signal;HPM_P1;HPM_P2
2022/02/15 00:04:33;;;;;;;20.02;18.23;;;;;;;4.12;74.23;99277.63;10449977;28;20049;-80
2022/02/15 00:09:35;;;;;;;20.70;18.23;;;;;;;4.16;73.59;99268.00;10468831;28;20041;-80
2022/02/15 00:14:36;;;;;;;21.00;17.95;;;;;;;3.93;73.81;99277.06;10469625;28;20097;-79
2022/02/15 00:19:38;;;;;;;18.65;16.92;;;;;;;4.07;74.32;99263.81;10468966;28;20050;-81
2022/02/15 00:24:39;;;;;;;19.35;17.08;;;;;;;4.00;74.38;99275.25;10484859;28;20045;-80
2022/02/15 00:29:41;;;;;;;19.55;17.95;;;;;;;4.03;74.09;99268.25;10496537;28;20032;-79
2022/02/15 00:34:42;;;;;;;18.65;16.83;;;;;;;4.03;73.63;99288.19;10479294;28;20128;-79
2022/02/15 00:39:44;;;;;;;19.33;17.52;;;;;;;4.07;72.91;99284.63;10471614;28;20041;-80
2022/02/15 00:44:46;;;;;;;19.98;17.98;;;;;;;4.16;72.85;99288.81;10460292;28;20045;-79
2022/02/15 00:49:47;;;;;;;18.33;16.80;;;;;;;3.90;73.88;99279.75;10461175;28;20120;-79
2022/02/15 00:54:49;;;;;;;19.02;17.08;;;;;;;4.00;73.71;99283.91;10477702;28;20037;-80
2022/02/15 00:59:51;;;;;;;19.58;17.88;;;;;;;3.88;73.82;99283.25;10463015;28;20049;-81
2022/02/15 01:04:53;;;;;;;19.85;17.95;;;;;;;3.62;75.43;99288.84;10457045;28;20056;-81
2022/02/15 01:09:55;;;;;;;20.75;18.92;;;;;;;3.63;74.93;99281.06;10473809;28;20486;-80
2022/02/15 01:14:57;;;;;;;21.02;19.25;;;;;;;3.37;75.95;99284.03;10474021;28;20041;-81
2022/02/15 01:20:00;;;;;;;20.02;17.95;;;;;;;3.82;73.71;99278.16;10454466;28;20075;-80
2022/02/15 01:25:03;;;;;;;21.10;19.02;;;;;;;3.79;73.64;99277.31;10472597;28;20041;-81
2022/02/15 01:30:06;;;;;;;20.25;18.23;;;;;;;3.72;73.40;99282.66;10437825;28;20094;-81
2022/02/15 01:35:08;;;;;;;21.20;19.05;;;;;;;3.54;74.92;99275.97;10437983;28;20060;-80
2022/02/15 01:40:10;;;;;;;19.90;18.05;;;;;;;3.45;74.57;99278.72;10459085;28;20132;-79
2022/02/15 01:45:15;;;;;;;20.77;18.75;;;;;;;3.59;74.59;99275.94;10476568;28;20041;-80
2022/02/15 01:50:16;;;;;;;21.38;19.10;;;;;;;3.32;75.42;99283.25;10442400;28;20060;-80
2022/02/15 01:55:19;;;;;;;21.58;19.55;;;;;;;3.46;75.44;99280.44;10458467;28;20102;-80
2022/02/15 02:00:22;;;;;;;18.92;17.38;;;;;;;3.39;74.96;99279.66;10473332;28;20108;-79
2022/02/15 02:05:50;;;;;;;19.45;17.55;;;;;;;3.65;74.08;99275.81;10483495;28;20095;-80
2022/02/15 02:10:58;;;;;;;20.20;18.33;;;;;;;3.91;73.23;99270.19;10442886;28;20064;-80
2022/02/15 02:16:05;;;;;;;19.00;17.20;;;;;;;3.64;73.33;99268.91;10469093;28;20106;-80
2022/02/15 02:21:16;;;;;;;19.75;17.95;;;;;;;3.41;74.52;99271.84;10469560;28;20116;-81
2022/02/15 02:26:18;;;;;;;21.90;18.85;;;;;;;3.42;74.88;99274.44;10449934;28;20052;-80
2022/02/15 02:31:20;;;;;;;19.58;17.88;;;;;;;3.51;74.13;99279.50;10450269;28;20071;-80
2022/02/15 02:36:48;;;;;;;22.25;18.67;;;;;;;3.57;74.49;99275.06;10453289;28;20071;-81
2022/02/15 02:41:52;;;;;;;17.85;16.42;;;;;;;3.65;73.65;99276.69;10473591;28;20116;-81
2022/02/15 02:46:53;;;;;;;19.00;17.40;;;;;;;3.67;73.90;99285.28;10464287;28;20041;-81
2022/02/15 02:52:01;;;;;;;19.23;17.35;;;;;;;3.90;72.40;99284.09;10459069;28;20045;-80
2022/02/15 02:57:03;;;;;;;19.58;17.52;;;;;;;3.85;72.96;99294.56;10455357;28;20049;-80
2022/02/15 03:02:07;;;;;;;19.55;17.85;;;;;;;3.92;72.73;99305.72;10454617;28;20095;-79
2022/02/15 03:07:10;;;;;;;19.38;17.48;;;;;;;3.59;74.05;99305.38;10451421;28;20052;-80
2022/02/15 03:12:14;;;;;;;20.20;18.30;;;;;;;3.49;74.22;99302.03;10468246;28;20045;-80
2022/02/15 03:17:19;;;;;;;20.27;18.40;;;;;;;3.37;74.82;99301.38;10450271;28;20041;-80
2022/02/15 03:22:22;;;;;;;20.15;18.45;;;;;;;3.33;74.84;99318.72;10451490;28;20108;-81
2022/02/15 03:27:24;;;;;;;19.90;18.00;;;;;;;3.42;74.90;99320.34;10470241;28;20065;-81
2022/02/15 03:32:26;;;;;;;17.95;16.35;;;;;;;3.43;75.16;99327.25;10436193;28;20494;-80
2022/02/15 03:37:29;;;;;;;20.88;18.83;;;;;;;3.42;75.16;99329.00;10451015;28;20069;-80
2022/02/15 03:47:55;;;;;;;19.98;17.98;;;;;;;3.91;73.10;99341.25;10447519;28;20091;-80
2022/02/15 03:52:57;;;;;;;19.25;17.30;;;;;;;3.79;73.37;99338.84;10433081;28;20075;-80
2022/02/15 03:58:00;;;;;;;17.42;15.95;;;;;;;3.54;74.38;99343.53;10437847;28;20419;-80
2022/02/15 04:03:03;;;;;;;19.13;17.23;;;;;;;3.40;75.32;99350.66;10469051;28;20045;-80
2022/02/15 04:08:05;;;;;;;19.65;17.95;;;;;;;3.36;75.74;99356.78;10448535;28;20041;-81
2022/02/15 04:13:08;;;;;;;19.10;17.58;;;;;;;3.49;75.76;99371.31;10458063;28;20099;-81
2022/02/15 04:18:10;;;;;;;19.90;18.00;;;;;;;3.50;75.74;99367.88;10456257;28;20044;-81
2022/02/15 04:23:12;;;;;;;20.15;18.42;;;;;;;3.76;76.62;99364.88;10456150;28;20465;-81
2022/02/15 04:28:14;;;;;;;20.02;18.20;;;;;;;3.66;76.31;99373.69;10447797;28;20051;-79
2022/02/15 04:33:16;;;;;;;19.80;18.17;;;;;;;3.42;77.67;99373.16;10481384;28;20052;-81
2022/02/15 04:38:18;;;;;;;18.70;17.10;;;;;;;3.43;77.95;99376.63;10484916;22;20068;-81
2022/02/15 04:43:19;;;;;;;21.10;19.35;;;;;;;3.45;77.95;99372.25;10431942;28;20045;-82
2022/02/15 04:48:23;;;;;;;20.23;18.58;;;;;;;3.48;78.59;99382.59;10431180;28;20049;-82
2022/02/15 04:53:25;;;;;;;19.95;18.17;;;;;;;3.47;78.56;99384.34;10438279;28;20084;-82
2022/02/15 04:58:27;;;;;;;22.58;20.15;;;;;;;3.77;79.14;99387.41;10430888;28;20038;-82
2022/02/15 05:03:28;;;;;;;21.30;19.02;;;;;;;3.69;78.88;99384.06;10432146;28;20132;-82
2022/02/15 05:08:34;;;;;;;20.15;18.30;;;;;;;3.40;79.73;99393.09;10437204;28;20049;-82
2022/02/15 05:13:39;;;;;;;19.05;17.55;;;;;;;3.24;80.48;99402.84;10419463;28;20064;-83
2022/02/15 05:18:50;;;;;;;20.23;18.30;;;;;;;3.24;80.75;99404.56;10442013;28;20042;-81
2022/02/15 05:23:57;;;;;;;19.20;17.48;;;;;;;3.28;81.16;99406.25;10412809;28;20129;-80
2022/02/15 05:29:09;;;;;;;20.73;18.98;;;;;;;3.32;82.08;99412.25;10415385;28;20052;-81
2022/02/15 05:34:18;;;;;;;21.85;20.02;;;;;;;3.42;81.79;99409.53;10414675;28;20037;-83
2022/02/15 05:39:22;;;;;;;21.92;19.92;;;;;;;3.28;81.43;99411.44;10416284;28;20069;-81
2022/02/15 05:44:33;;;;;;;23.70;21.08;;;;;;;3.22;82.82;99427.09;10402308;28;20045;-82
2022/02/15 05:55:10;;;;;;;21.95;19.85;;;;;;;3.29;83.59;99428.75;10412432;28;20052;-82
2022/02/15 06:00:14;;;;;;;27.30;21.17;;;;;;;3.28;83.74;99433.09;10412661;28;20086;-80
2022/02/15 06:05:16;;;;;;;22.10;19.95;;;;;;;3.13;84.23;99433.25;10430494;28;20045;-81
2022/02/15 06:10:24;;;;;;;24.70;20.38;;;;;;;3.23;84.80;99441.78;10397130;28;20462;-80
2022/02/15 06:15:32;;;;;;;23.45;19.70;;;;;;;3.21;84.72;99441.81;10399319;28;20041;-80
2022/02/15 06:20:41;;;;;;;22.52;20.50;;;;;;;3.01;84.45;99446.34;10445596;28;20067;-81
2022/02/15 06:25:44;;;;;;;22.70;20.50;;;;;;;2.96;84.39;99456.78;10441163;28;20109;-81
2022/02/15 06:30:47;;;;;;;24.77;20.70;;;;;;;3.16;84.10;99461.78;10420122;28;20049;-83
2022/02/15 06:35:58;;;;;;;21.70;19.60;;;;;;;3.31;84.07;99463.34;10422621;28;20084;-82
2022/02/15 06:41:00;;;;;;;22.75;20.42;;;;;;;3.11;84.58;99475.72;10396228;28;20049;-80
2022/02/15 06:46:22;;;;;;;25.10;22.75;;;;;;;3.14;84.93;99489.50;10430676;28;20128;-82
2022/02/15 06:51:24;;;;;;;22.77;20.63;;;;;;;3.41;83.94;99490.06;10434760;28;20076;-81
2022/02/15 06:56:30;;;;;;;22.95;20.65;;;;;;;3.41;83.14;99485.75;10399019;28;20046;-80
2022/02/15 07:01:39;;;;;;;22.43;20.23;;;;;;;3.60;82.63;99493.34;10395043;28;20407;-80
2022/02/15 07:06:44;;;;;;;;;;;;;;;3.64;82.99;99495.88;10410258;28;20056;-80
2022/02/15 07:11:46;;;;;;;21.27;19.58;;;;;;;3.73;82.18;99511.34;10412564;28;19971;-81
2022/02/15 07:16:48;;;;;;;22.00;20.10;;;;;;;3.99;81.76;99510.16;10428303;28;20053;-81
2022/02/15 07:21:50;;;;;;;22.27;20.05;;;;;;;4.05;80.41;99515.28;10409681;28;20041;-81
2022/02/15 07:27:23;;;;;;;21.27;19.38;;;;;;;3.77;81.59;99518.25;10402370;28;20049;-82
2022/02/15 07:32:39;;;;;;;23.27;21.02;;;;;;;3.63;83.02;99535.75;10396139;28;20041;-82
2022/02/15 07:37:41;;;;;;;23.45;20.45;;;;;;;3.74;81.01;99535.63;10393775;28;20041;-81
2022/02/15 07:42:42;;;;;;;22.05;20.05;;;;;;;3.80;81.07;99541.56;10428193;28;20045;-80
2022/02/15 07:47:49;;;;;;;27.15;20.70;;;;;;;4.12;78.50;99542.03;10410954;28;20534;-81
2022/02/15 07:52:51;;;;;;;25.48;22.65;;;;;;;4.15;79.03;99545.47;10429477;28;20041;-81
2022/02/15 07:57:52;;;;;;;23.13;20.77;;;;;;;4.03;79.97;99556.06;10429064;28;20053;-83
2022/02/15 08:02:56;;;;;;;23.88;21.77;;;;;;;3.99;81.14;99563.03;10395356;28;20557;-82
2022/02/15 08:07:58;;;;;;;23.42;21.17;;;;;;;4.39;79.19;99561.66;10416024;28;20046;-82
2022/02/15 08:13:02;;;;;;;23.90;21.48;;;;;;;4.74;77.38;99575.00;10430084;28;20365;-81
2022/02/15 08:18:05;;;;;;;25.88;23.35;;;;;;;4.45;78.11;99567.59;10445263;28;20112;-83
2022/02/15 08:23:06;;;;;;;23.23;21.15;;;;;;;4.70;78.62;99580.28;10418261;28;20049;-83
2022/02/15 08:28:10;;;;;;;24.50;21.95;;;;;;;4.93;78.00;99565.13;10411843;28;20513;-80
2022/02/15 08:33:12;;;;;;;21.98;19.88;;;;;;;5.00;77.87;99577.19;10425630;28;20119;-81
2022/02/15 08:38:13;;;;;;;22.45;20.10;;;;;;;4.97;78.85;99582.44;10425678;28;20045;-80
2022/02/15 08:43:17;;;;;;;20.90;19.20;;;;;;;5.14;78.39;99576.94;10428481;28;20123;-80
2022/02/15 08:48:18;;;;;;;27.73;19.70;;;;;;;5.57;77.00;99581.38;10432555;28;20132;-81
2022/02/15 08:53:20;;;;;;;23.67;21.17;;;;;;;5.87;74.46;99579.94;10413542;28;20041;-82
2022/02/15 08:58:22;;;;;;;23.88;21.80;;;;;;;5.83;74.57;99581.75;10432621;28;20076;-81
2022/02/15 09:03:23;;;;;;;22.48;19.27;;;;;;;6.07;73.16;99574.34;10466627;28;20049;-82
2022/02/15 09:08:25;;;;;;;23.55;19.17;;;;;;;5.95;74.41;99580.69;10434500;28;20061;-82
2022/02/15 09:13:27;;;;;;;21.73;19.48;;;;;;;6.10;75.14;99583.84;10433325;28;20124;-82
2022/02/15 09:18:28;;;;;;;19.42;17.48;;;;;;;6.55;73.81;99574.16;10398066;28;20473;-81
2022/02/15 09:23:30;;;;;;;12.68;4.78;;;;;;;7.07;74.45;99583.38;10431666;28;20041;-81
2022/02/15 09:28:31;;;;;;;6.32;3.30;;;;;;;7.93;70.00;99579.38;10430951;28;20045;-81
2022/02/15 09:33:33;;;;;;;4.90;2.45;;;;;;;8.09;68.50;99582.38;10413181;28;20057;-79
2022/02/15 09:38:53;;;;;;;7.55;2.65;;;;;;;8.33;66.75;99583.44;10412580;28;20059;-81
2022/02/15 09:43:54;;;;;;;6.20;2.50;;;;;;;8.58;64.90;99584.44;10419715;28;20095;-81
2022/02/15 09:48:56;;;;;;;6.10;2.85;;;;;;;8.55;64.74;99578.47;10429812;28;20056;-82
2022/02/15 09:53:57;;;;;;;4.40;2.45;;;;;;;8.60;63.79;99581.78;10410196;28;20042;-81
2022/02/15 09:58:59;;;;;;;4.82;2.08;;;;;;;8.74;63.25;99591.84;10410489;28;20049;-81
2022/02/15 10:04:03;;;;;;;5.45;2.15;;;;;;;8.84;63.13;99601.13;10412878;28;20045;-82
2022/02/15 10:09:04;;;;;;;6.40;1.95;;;;;;;8.76;63.69;99603.13;10414792;28;20107;-81
2022/02/15 10:14:10;;;;;;;4.88;2.25;;;;;;;9.03;61.97;99598.75;10396114;28;20136;-81
2022/02/15 10:19:19;;;;;;;4.47;2.10;;;;;;;9.37;60.46;99595.88;10420700;28;20076;-81
2022/02/15 10:24:23;;;;;;;4.95;2.00;;;;;;;9.24;59.62;99597.19;10409586;28;20049;-80
2022/02/15 10:29:26;;;;;;;3.25;2.22;;;;;;;9.32;60.13;99592.56;10426948;28;20100;-80
2022/02/15 10:34:28;;;;;;;4.78;2.17;;;;;;;9.25;59.68;99591.94;10426513;28;20084;-80
2022/02/15 10:39:44;;;;;;;4.43;2.22;;;;;;;9.37;59.26;99588.00;10410360;28;20629;-79
2022/02/15 10:44:49;;;;;;;4.65;1.70;;;;;;;9.74;59.21;99591.97;10428059;28;20041;-80
2022/02/15 10:49:53;;;;;;;4.03;1.88;;;;;;;10.30;56.84;99587.31;10435059;28;20045;-79
2022/02/15 10:54:56;;;;;;;5.15;2.20;;;;;;;10.41;55.79;99568.53;10464625;23;20041;-72
2022/02/15 11:00:04;;;;;;;4.45;1.75;;;;;;;11.13;53.75;99568.28;10404308;28;20402;-73
2022/02/15 11:05:11;;;;;;;3.17;1.85;;;;;;;11.35;54.26;99574.34;10425831;28;20096;-73
2022/02/15 11:11:05;;;;;;;4.38;1.85;;;;;;;11.54;53.24;99573.56;10420617;28;20105;-73
2022/02/15 11:16:14;;;;;;;3.65;2.00;;;;;;;11.29;53.55;99576.41;10295628;28;20134;-73
2022/02/15 11:21:24;;;;;;;6.13;2.55;;;;;;;10.38;56.52;99588.81;10295878;28;20676;-73
2022/02/15 11:26:41;;;;;;;5.78;2.47;;;;;;;10.29;57.39;99584.75;10298822;28;20047;-73
2022/02/15 11:31:43;;;;;;;7.07;2.67;;;;;;;10.15;57.73;99584.41;10296496;28;20165;-72
2022/02/15 11:36:50;;;;;;;9.88;3.00;;;;;;;10.09;56.45;99585.44;10294702;28;20065;-73
2022/02/15 11:41:59;;;;;;;9.65;2.60;;;;;;;10.01;57.89;99575.25;10278014;28;20061;-73
2022/02/15 11:47:17;;;;;;;6.97;1.95;;;;;;;10.50;56.27;99580.47;10293257;28;20409;-73
2022/02/15 11:52:19;;;;;;;3.88;1.90;;;;;;;9.89;56.59;99582.72;10416766;28;20058;-74
2022/02/15 11:57:21;;;;;;;5.38;2.25;;;;;;;10.05;56.54;99578.63;10421778;28;20076;-74
2022/02/15 12:02:23;;;;;;;3.80;1.80;;;;;;;10.09;57.97;99588.06;10421645;28;20044;-74
2022/02/15 12:07:29;;;;;;;3.95;1.75;;;;;;;11.29;54.25;99584.28;10420926;28;20050;-73
2022/02/15 12:12:33;;;;;;;2.80;1.50;;;;;;;11.78;53.23;99587.47;10423336;28;20050;-73
2022/02/15 12:17:42;;;;;;;4.35;2.35;;;;;;;11.97;51.94;99592.78;10406684;28;20573;-74
2022/02/15 12:22:48;;;;;;;6.47;2.25;;;;;;;11.32;54.13;99582.38;10429159;28;20044;-74
2022/02/15 12:28:09;;;;;;;3.80;1.95;;;;;;;10.70;54.27;99593.66;10430418;28;20507;-73
2022/02/15 12:33:11;;;;;;;2.13;1.70;;;;;;;10.44;55.22;99589.41;10431964;28;20431;-73
2022/02/15 12:38:14;;;;;;;3.17;2.00;;;;;;;10.25;55.36;99584.00;10411965;28;20065;-74
2022/02/15 12:43:16;;;;;;;4.93;1.60;;;;;;;10.12;55.82;99574.84;10412155;28;20041;-73
2022/02/15 12:48:18;;;;;;;3.83;2.00;;;;;;;10.35;55.78;99577.47;10427970;28;20053;-73
2022/02/15 12:53:20;;;;;;;3.03;1.40;;;;;;;10.36;55.15;99583.63;10432851;28;20534;-73
2022/02/15 12:58:23;;;;;;;4.05;1.80;;;;;;;9.93;56.26;99579.06;10412093;28;20478;-74
2022/02/15 13:03:32;;;;;;;2.55;1.60;;;;;;;9.97;55.82;99580.69;10412019;28;20047;-74
2022/02/15 13:08:55;;;;;;;5.65;2.20;;;;;;;10.03;56.16;99583.06;10411565;28;20073;-74
2022/02/15 13:14:00;;;;;;;2.77;1.70;;;;;;;9.95;57.49;99587.72;10431371;28;20029;-75
2022/02/15 13:19:03;;;;;;;5.90;2.13;;;;;;;10.00;56.87;99581.41;10431151;28;20076;-74
2022/02/15 13:24:13;;;;;;;3.60;2.13;;;;;;;9.97;57.09;99578.91;10412151;28;20041;-75
2022/02/15 13:29:27;;;;;;;6.05;2.20;;;;;;;9.78;57.55;99585.72;10411949;28;20454;-75
2022/02/15 13:34:29;;;;;;;4.50;1.85;;;;;;;9.95;56.24;99577.22;10410741;28;20519;-75
2022/02/15 13:39:33;;;;;;;4.25;2.03;;;;;;;9.76;57.35;99577.91;10429736;28;20041;-74
2022/02/15 13:44:35;;;;;;;3.20;1.67;;;;;;;9.81;56.93;99589.09;10409401;28;20045;-74
2022/02/15 13:49:39;;;;;;;4.80;2.03;;;;;;;9.62;57.45;99584.56;10426997;28;20514;-74
2022/02/15 13:54:44;;;;;;;4.68;1.95;;;;;;;9.65;57.58;99587.06;10425092;28;20048;-74
2022/02/15 13:59:46;;;;;;;3.28;2.28;;;;;;;9.76;57.82;99592.78;10426767;28;20041;-74
2022/02/15 14:04:48;;;;;;;6.20;2.00;;;;;;;9.80;57.61;99591.78;10424435;28;20042;-74
2022/02/15 14:09:50;;;;;;;7.13;1.80;;;;;;;9.82;57.56;99588.16;10423993;28;20041;-74
2022/02/15 14:14:53;;;;;;;3.88;2.08;;;;;;;9.80;58.17;99594.41;10424733;28;20045;-74
2022/02/15 14:19:56;;;;;;;5.55;2.35;;;;;;;9.87;57.59;99590.63;10424567;28;20128;-73
2022/02/15 14:24:57;;;;;;;4.15;1.90;;;;;;;9.71;58.26;99590.34;10425617;28;20435;-74
2022/02/15 14:30:14;;;;;;;4.35;1.52;;;;;;;9.82;58.09;99596.03;10425678;28;20065;-74
2022/02/15 14:35:17;;;;;;;2.80;1.60;;;;;;;9.73;58.40;99598.16;10425458;28;20046;-75
2022/02/15 14:40:22;;;;;;;5.00;1.98;;;;;;;9.60;58.69;99598.56;10407879;28;20050;-74
2022/02/15 14:45:24;;;;;;;3.83;1.60;;;;;;;9.47;59.35;99594.66;10409645;28;20093;-74
2022/02/15 14:50:28;;;;;;;5.03;1.20;;;;;;;9.57;57.89;99597.84;10425370;28;20046;-74
2022/02/15 14:55:30;;;;;;;3.63;0.80;;;;;;;9.47;56.51;99602.53;10425993;28;20065;-74
2022/02/15 15:00:33;;;;;;;1.45;0.80;;;;;;;9.45;56.55;99606.13;10424437;28;20072;-74
2022/02/15 15:05:35;;;;;;;1.92;0.38;;;;;;;9.31;57.10;99602.19;10424449;28;20041;-74
2022/02/15 15:10:40;;;;;;;2.55;0.55;;;;;;;9.02;58.70;99600.53;10423063;28;20524;-73
2022/02/15 15:15:42;;;;;;;3.08;0.80;;;;;;;9.26;58.15;99598.88;10423767;28;20495;-75
2022/02/15 15:20:44;;;;;;;2.85;0.63;;;;;;;9.26;58.25;99604.13;10425166;28;20041;-73
2022/02/15 15:25:46;;;;;;;3.78;0.90;;;;;;;9.24;58.72;99602.44;10409648;28;20097;-73
2022/02/15 15:30:48;;;;;;;3.58;1.08;;;;;;;9.20;59.01;99585.94;10406297;28;20562;-75
2022/02/15 15:35:50;;;;;;;3.05;1.02;;;;;;;9.06;59.55;99596.03;10407954;28;20053;-71
2022/02/15 15:40:52;;;;;;;1.95;1.30;;;;;;;9.04;59.53;99608.34;10425869;28;20049;-73
2022/02/15 15:45:53;;;;;;;3.30;1.45;;;;;;;8.86;60.40;99619.44;10401995;28;20045;-70
2022/02/15 15:50:56;;;;;;;3.20;1.25;;;;;;;8.87;60.33;99614.13;10399847;28;20041;-73
2022/02/15 15:55:58;;;;;;;3.58;1.10;;;;;;;8.85;59.96;99613.31;10415728;28;20117;-71
2022/02/15 16:01:00;;;;;;;4.07;1.30;;;;;;;8.78;59.94;99612.66;10418047;28;20050;-71
2022/02/15 16:06:02;;;;;;;2.70;1.33;;;;;;;8.69;60.24;99620.81;10419193;28;20042;-71
2022/02/15 16:11:03;;;;;;;2.42;1.83;;;;;;;8.88;61.87;99634.19;10403942;28;20511;-71
2022/02/15 16:16:06;;;;;;;3.47;2.63;;;;;;;8.62;65.66;99648.09;10401489;28;20072;-72
2022/02/15 16:21:10;;;;;;;3.58;2.53;;;;;;;8.17;72.38;99650.25;10400721;28;20033;-70
2022/02/15 16:26:12;;;;;;;3.65;2.55;;;;;;;7.80;76.32;99635.56;10418997;28;20048;-70
2022/02/15 16:31:34;;;;;;;3.63;2.63;;;;;;;7.47;77.87;99632.06;10420324;28;20045;-72
2022/02/15 16:36:36;;;;;;;5.82;2.78;;;;;;;7.44;79.01;99637.38;10421318;28;20044;-71
2022/02/15 16:41:40;;;;;;;2.92;2.63;;;;;;;7.29;79.42;99638.59;10401053;28;20058;-72
2022/02/15 16:46:42;;;;;;;4.88;2.70;;;;;;;7.04;81.48;99644.44;10419239;28;20037;-72
2022/02/15 16:51:47;;;;;;;3.03;2.47;;;;;;;7.39;78.25;99636.63;10421193;28;20038;-73
2022/02/15 16:56:50;;;;;;;6.03;2.28;;;;;;;7.14;78.75;99633.75;10423569;28;20465;-73
2022/02/15 17:01:52;;;;;;;3.40;2.97;;;;;;;7.05;78.95;99640.94;10402916;28;20099;-72
2022/02/15 17:06:54;;;;;;;3.63;2.72;;;;;;;6.87;79.74;99636.13;10409123;28;20042;-70
2022/02/15 17:11:56;;;;;;;3.00;2.70;;;;;;;6.88;79.43;99629.16;10426547;28;20052;-72
2022/02/15 17:17:00;;;;;;;3.25;2.78;;;;;;;6.70;79.34;99638.28;10411135;28;20069;-72
2022/02/15 17:22:02;;;;;;;3.28;2.78;;;;;;;6.86;78.69;99654.44;10426500;28;20042;-72
2022/02/15 17:27:04;;;;;;;4.70;3.17;;;;;;;6.73;79.67;99653.84;10409925;28;20048;-72
2022/02/15 17:32:06;;;;;;;3.35;2.70;;;;;;;6.80;78.56;99650.22;10427186;28;20037;-71
2022/02/15 17:37:16;;;;;;;6.30;2.35;;;;;;;6.78;79.37;99670.31;10407984;28;20132;-70
2022/02/15 17:42:19;;;;;;;2.73;2.20;;;;;;;7.21;76.37;99664.94;10428390;28;20484;-71
2022/02/15 17:47:24;;;;;;;3.05;2.30;;;;;;;7.07;77.39;99653.94;10427712;28;20407;-71
2022/02/15 17:52:26;;;;;;;1.95;1.80;;;;;;;7.27;74.89;99648.25;10450678;22;20040;-69
2022/02/15 17:57:29;;;;;;;2.58;2.05;;;;;;;7.22;75.41;99647.50;10462427;28;20045;-68
2022/02/15 18:02:30;;;;;;;2.65;2.45;;;;;;;7.12;75.60;99644.22;10461427;28;20045;-68
2022/02/15 18:07:32;;;;;;;3.70;2.95;;;;;;;6.91;76.12;99655.22;10460819;28;20494;-68
2022/02/15 18:12:34;;;;;;;3.13;2.78;;;;;;;6.70;77.02;99656.56;10460800;28;20068;-69
2022/02/15 18:17:37;;;;;;;4.15;3.28;;;;;;;6.57;77.61;99669.88;10460995;28;20045;-69
2022/02/15 18:22:39;;;;;;;5.00;3.95;;;;;;;6.69;77.34;99666.13;10443654;28;20041;-68
2022/02/15 18:27:40;;;;;;;6.43;4.72;;;;;;;6.59;77.35;99664.59;10460677;28;20124;-68
2022/02/15 18:32:42;;;;;;;6.88;4.80;;;;;;;6.61;76.93;99661.97;10461185;28;20492;-69
2022/02/15 18:37:44;;;;;;;5.43;4.35;;;;;;;6.60;76.25;99658.50;10442401;28;20107;-68
2022/02/15 18:42:46;;;;;;;4.30;3.90;;;;;;;6.53;76.03;99667.34;10461356;28;20049;-69
2022/02/15 18:47:48;;;;;;;4.65;4.10;;;;;;;6.62;75.60;99676.75;10462511;28;20132;-68
2022/02/15 18:52:49;;;;;;;2.97;2.58;;;;;;;6.90;74.10;99683.06;10462793;28;20502;-69
2022/02/15 18:57:51;;;;;;;3.65;3.35;;;;;;;6.76;73.22;99672.94;10462441;28;20056;-69
2022/02/15 19:02:54;;;;;;;3.55;3.25;;;;;;;6.88;72.54;99674.41;10461837;28;20124;-68
2022/02/15 19:07:56;;;;;;;3.63;3.22;;;;;;;6.76;73.33;99679.91;10459562;28;20044;-69
2022/02/15 19:12:57;;;;;;;3.05;2.70;;;;;;;6.62;73.71;99682.81;10446142;28;20052;-70
2022/02/15 19:17:59;;;;;;;2.80;2.40;;;;;;;6.66;73.14;99673.19;10430051;28;20049;-69
2022/02/15 19:23:03;;;;;;;3.33;2.38;;;;;;;6.44;74.08;99681.47;10463339;28;20056;-69
2022/02/15 19:28:06;;;;;;;2.13;1.92;;;;;;;6.63;72.17;99688.91;10464434;28;20041;-69
2022/02/15 19:33:08;;;;;;;2.40;2.10;;;;;;;6.82;71.15;99703.31;10444208;28;20083;-69
2022/02/15 19:38:11;;;;;;;2.17;1.80;;;;;;;6.80;70.92;99700.72;10444304;28;20106;-69
2022/02/15 19:43:17;;;;;;;1.80;1.67;;;;;;;6.92;69.87;99714.41;10419294;28;20051;-69
2022/02/15 19:48:19;;;;;;;2.47;1.80;;;;;;;6.91;69.15;99705.72;10430741;28;20053;-69
2022/02/15 19:53:21;;;;;;;1.98;1.50;;;;;;;6.99;68.27;99701.16;10451520;28;20040;-69
2022/02/15 19:58:23;;;;;;;1.75;1.48;;;;;;;6.97;68.35;99696.88;10462943;28;20053;-69
2022/02/15 20:03:25;;;;;;;1.83;1.33;;;;;;;6.69;68.91;99709.69;10444244;28;20068;-69
2022/02/15 20:08:27;;;;;;;1.65;1.40;;;;;;;6.67;68.75;99711.47;10463151;28;20578;-68
2022/02/15 20:13:29;;;;;;;1.63;1.48;;;;;;;6.47;68.53;99711.88;10448467;28;20041;-68
2022/02/15 20:18:31;;;;;;;1.75;1.33;;;;;;;6.28;69.46;99712.22;10461977;28;20067;-69
2022/02/15 20:23:33;;;;;;;1.45;1.33;;;;;;;6.05;69.79;99710.06;10444632;28;20434;-70
2022/02/15 20:28:39;;;;;;;3.38;1.40;;;;;;;6.00;69.68;99706.66;10466308;28;20049;-69
2022/02/15 20:33:44;;;;;;;1.70;1.40;;;;;;;5.61;71.46;99712.56;10464794;28;20041;-69
2022/02/15 20:38:45;;;;;;;1.50;1.40;;;;;;;5.90;70.63;99714.69;10445312;28;20051;-70
2022/02/15 20:43:47;;;;;;;1.40;1.30;;;;;;;5.89;70.21;99706.00;10467858;28;20037;-69
2022/02/15 20:48:49;;;;;;;1.85;1.15;;;;;;;5.82;70.01;99693.94;10450505;28;20049;-69
2022/02/15 20:53:51;;;;;;;2.05;1.70;;;;;;;5.50;71.31;99690.13;10455358;28;20064;-69
2022/02/15 20:58:53;;;;;;;2.35;1.90;;;;;;;5.27;72.27;99690.50;10471739;28;20045;-69
2022/02/15 21:03:55;;;;;;;1.55;1.42;;;;;;;5.35;71.85;99690.38;10464765;28;20114;-70
2022/02/15 21:08:56;;;;;;;1.95;1.60;;;;;;;5.16;72.72;99691.56;10446629;28;20045;-69
2022/02/15 21:13:58;;;;;;;2.10;1.90;;;;;;;5.09;72.51;99693.41;10463239;28;20052;-69
2022/02/15 21:19:00;;;;;;;2.35;2.03;;;;;;;4.95;73.14;99685.78;10462947;28;20052;-69
2022/02/15 21:24:02;;;;;;;2.10;1.63;;;;;;;5.34;71.85;99680.84;10462134;28;20470;-70
2022/02/15 21:29:05;;;;;;;2.15;1.92;;;;;;;4.90;72.72;99692.78;10463530;28;20048;-69
2022/02/15 21:34:07;;;;;;;2.80;2.22;;;;;;;4.67;73.43;99689.66;10444854;28;20041;-70
2022/02/15 21:39:11;;;;;;;2.42;1.90;;;;;;;4.83;72.45;99690.31;10464422;28;20075;-70
2022/02/15 21:44:12;;;;;;;2.40;1.90;;;;;;;4.87;72.19;99679.84;10463138;28;20044;-69
2022/02/15 21:49:14;;;;;;;2.22;2.00;;;;;;;4.63;72.57;99685.38;10461707;28;20056;-70
2022/02/15 21:54:16;;;;;;;2.55;1.55;;;;;;;4.84;70.80;99682.47;10461545;28;20045;-70
2022/02/15 21:59:17;;;;;;;2.42;1.40;;;;;;;4.65;71.28;99671.47;10443242;28;20087;-69
2022/02/15 22:04:20;;;;;;;1.55;1.42;;;;;;;4.90;69.34;99665.88;10460640;28;20502;-70
2022/02/15 22:09:21;;;;;;;1.25;1.15;;;;;;;5.08;68.29;99647.38;10460968;28;20516;-69
2022/02/15 22:14:23;;;;;;;1.55;1.25;;;;;;;5.10;68.07;99645.63;10461036;28;20124;-70
2022/02/15 22:19:25;;;;;;;1.58;1.48;;;;;;;4.79;69.03;99646.09;10460539;28;20083;-70
2022/02/15 22:24:27;;;;;;;1.80;1.45;;;;;;;4.72;69.09;99638.38;10443799;28;20453;-70
2022/02/15 22:29:30;;;;;;;2.17;1.45;;;;;;;4.79;68.41;99630.47;10461100;28;20048;-69
2022/02/15 22:34:32;;;;;;;1.65;1.48;;;;;;;4.65;69.02;99631.53;10460715;28;20037;-69
2022/02/15 22:39:34;;;;;;;1.98;1.70;;;;;;;4.44;69.01;99627.50;10458773;28;20083;-68
2022/02/15 22:44:37;;;;;;;1.77;1.33;;;;;;;4.30;69.67;99617.28;10458640;28;20048;-69
2022/02/15 22:49:44;;;;;;;2.08;1.48;;;;;;;4.18;69.83;99612.22;10458374;28;20060;-69
2022/02/15 22:54:46;;;;;;;1.67;1.40;;;;;;;4.22;69.31;99612.16;10459439;28;20036;-69
2022/02/15 22:59:49;;;;;;;3.30;1.70;;;;;;;4.25;69.37;99624.25;10458471;28;20041;-69
2022/02/15 23:20:44;;;;;;;1.70;1.25;;;;;;;4.11;68.78;99598.41;10459183;28;20041;-69
2022/02/15 23:25:47;;;;;;;2.13;1.50;;;;;;;4.15;68.14;99604.44;10461658;28;20037;-69
2022/02/15 23:30:49;;;;;;;2.75;1.63;;;;;;;4.16;67.25;99590.56;10459397;28;20041;-69
2022/02/15 23:35:50;;;;;;;2.10;1.73;;;;;;;4.06;67.40;99592.41;10459072;28;20387;-69
2022/02/15 23:40:52;;;;;;;2.03;1.83;;;;;;;4.13;67.06;99580.22;10459949;28;20087;-69
2022/02/15 23:45:54;;;;;;;2.75;1.40;;;;;;;3.99;66.81;99568.25;10460901;28;20442;-69
2022/02/15 23:56:15;;;;;;;2.13;1.30;;;;;;;4.01;66.52;99547.41;10316399;28;20054;-74
